Loisir ou Compétition : Rejoignez un Club de la Fédération

Résultats

COUPE D'ARGENT U12 - COUPE CARRE NEIGE

ST FRANC. LONGCHAMP

GS Hommes

Jury de Compétition

Délégué Technique :
GRIGNOUX STEPHANE (SA)
Arbitre :
MARIN LAMELLET THIBAULT (SA)
Assistant :
 
Dir. Epreuve :
CHOQUET PASCAL (SA)

Caractéristiques de la Piste

Piste :
ROUGE LE COQ
Départ :
1850
Arrivée :
1710
Dénivelé :
140
Homologation :
2403/11/08

Manche 1

Nombre de Portes :
23
Heure de Départ :
11H
Traceur :
SAMBUIS LIONEL (SA)
Ouvreurs A :
MINGUET LOU (SA)
Ouvreurs B :
BOIS CORENTINE (SA)
Ouvreurs C :
 
Ouvreurs D :
 
Ouvreurs E :
 
Temps :
NEIGEUX
Neige :
HUMIDE

Manche 2

Nombre de Portes :
29
Heure de Départ :
13H30
Traceur :
DELAHAYE CLEMENT (SA)
Ouvreurs A :
MINGUET LOU (SA)
Ouvreurs B :
BOIS CORENTINE (SA)
Ouvreurs C :
 
Ouvreurs D :
 
Ouvreurs E :
 
Température Départ :
-1
Température Arrivée :
+4

Pénalité Appliquée :
180.0000

Catégorie :
U12
Clt Dos Clt/Cat Code An Nom Prénom Com Club Tps M1 Tps M2 Tps Tot Pts
Classés
1 74 1/U12 FFS2667059 2006 GACHET JULIEN SA SC ARECHES 35.20 36.52 1:11.72 180.00
2 68 2/U12 FFS2666971 2006 BADEY TOM SA VAL D'ISERE 34.64 37.23 1:11.87 182.05
3 25 3/U12 FFS2673392 2006 SIMON EMILIEN SA CS TIGNES 35.72 37.18 1:12.90 196.12
4 65 4/U12 FFS2672868 2006 BERMOND MASSON NATHAN SA SC MENUIRES 35.81 37.66 1:13.47 203.91
5 88 5/U12 FFS2675037 2006 TRIOMPHE IANIS SA SC CHAMBERY 35.90 37.86 1:13.76 207.88
6 79 6/U12 FFS2679126 2006 BLANC MATHIS SA SC BONNEVAL 36.27 37.62 1:13.89 209.65
7 80 7/U12 FFS2682490 2006 DOREL RAPHAEL SA CO VAL THO 36.11 38.56 1:14.67 220.31
8 69 8/U12 FFS2666977 2006 BAZILE TIMEO SA VAL D'ISERE 36.68 38.17 1:14.85 222.77
8 71 8/U12 FFS2667342 2006 MORIS ANTHONY SA VAL D'ISERE 36.61 38.24 1:14.85 222.77
10 43 10/U12 FFS2671315 2006 BLANCHET TITOUAN SA SC FLUMET 36.92 38.05 1:14.97 224.41
11 63 11/U12 FFS2665481 2006 GRAVIER AXEL SA CS VAL CENIS 36.67 38.42 1:15.09 226.05
12 10 12/U12 FFS2679258 2007 CARRICK SMITH ZAK SA VILLAROGER 36.31 39.03 1:15.34 229.46
13 19 13/U12 FFS2665715 2006 FAVETTA LEO SA CS VAL CENIS 36.27 39.10 1:15.37 229.87
14 30 14/U12 FFS2679256 2007 CARRICK SMITH FREDDY SA VILLAROGER 37.13 38.56 1:15.69 234.25
15 5 15/U12 FFS2679774 2006 ONNIS TEIVA SA CS LA PLAGNE 36.60 39.22 1:15.82 236.02
16 12 16/U12 FFS2669284 2006 VALET MATIS SA SC VALMEINIE 36.40 39.57 1:15.97 238.07
17 18 17/U12 FFS2665291 2006 FILLIOL TIMOTHEE SA CS VAL CENIS 36.62 39.43 1:16.05 239.17
18 114 18/U12 FFS2678663 2006 MINAUDO LOU SA AS AUSSOIS 37.70 38.38 1:16.08 239.58
19 48 19/U12 FFS2670284 2006 JOURNOUD THIBAUT SA SC MERIBEL 36.75 39.41 1:16.16 240.67
19 109 19/U12 FFS2674112 2007 HAGHIGHAT VICTOR SA CO VAL THO 36.77 39.39 1:16.16 240.67
21 116 21/U12 FFS2665476 2006 FINAZ CILLIAN SA CS VAL CENIS 37.38 39.02 1:16.40 243.95
22 108 22/U12 FFS2679127 2006 BONIFACE LIVIO SA SC BONNEVAL 37.70 38.82 1:16.52 245.59
23 7 23/U12 FFS2680132 2007 REGNIER MATTI SA CS LA PLAGNE 36.53 40.09 1:16.62 246.95
24 3 24/U12 FFS2667743 2006 TRIOULLIER EVAN SA VAL D'ISERE 37.48 39.16 1:16.64 247.23
25 51 25/U12 FFS2669023 2006 FAVRE GABIN SA SC MT CHARVI 37.03 39.68 1:16.71 248.18
26 15 26/U12 FFS2671354 2006 TATOUD MAO SA SC LA TANIA 37.08 39.71 1:16.79 249.28
27 83 27/U12 FFS2675904 2006 DALAIRY LILIAN SA S.H MODANE-V 37.44 39.37 1:16.81 249.55
28 87 28/U12 FFS2684298 2007 BLANC DAMIEN SA SC BONNEVAL 37.32 39.50 1:16.82 249.69
29 49 29/U12 FFS2672841 2006 COUSIN SAMUEL SA SC MENUIRES 37.98 39.21 1:17.19 254.74
30 84 30/U12 FFS2674838 2007 NORAZ THIBAULT SA SC VALLOIRE 37.78 39.89 1:17.67 261.30
31 105 31/U12 FFS2678555 2006 LANFREY SVENN SA S.H MODANE-V 38.40 39.60 1:18.00 265.81
32 20 32/U12 FFS2690459 2007 TREY DASSAIN LOUIS SA VILLAROGER 37.91 40.17 1:18.08 266.90
33 72 33/U12 FFS2667087 2006 SPETTEL LOUIS SA CO VAL THO 37.96 40.14 1:18.10 267.18
34 81 34/U12 FFS2667497 2006 MOLLET ARTHUR SA SC CHAMBERY 38.52 39.71 1:18.23 268.95
35 62 35/U12 FFS2667058 2006 GACHET CLEMENT SA SC ARECHES 37.81 40.50 1:18.31 270.05
36 26 36/U12 FFS2671322 2006 MOUNIER JANOT NOAH SA CS VALMOREL 38.25 40.12 1:18.37 270.87
37 23 37/U12 FFS2676319 2006 MORTON LUVIO SA CS TIGNES 39.83 38.57 1:18.40 271.28
38 1 38/U12 FFS2674042 2007 ROUSSET ARMAND SA CS KARELLIS 37.86 40.57 1:18.43 271.69
39 95 39/U12 FFS2688505 2007 POPOV ROMAN SA CO VAL THO 38.18 40.30 1:18.48 272.37
40 13 40/U12 FFS2666853 2006 PAQUIS TAO SA CO VAL THO 37.98 40.51 1:18.49 272.51
41 44 41/U12 FFS2665974 2006 ROBINSON FINLAY SA COURCHEVEL 37.78 40.72 1:18.50 272.64
42 32 42/U12 FFS2671320 2006 GUNIE NOLAN SA CS VALMOREL 38.07 40.47 1:18.54 273.19
43 35 43/U12 FFS2682911 2007 GIRARD HUGO SA ST FRANCOIS 37.94 40.63 1:18.57 273.60
44 59 44/U12 FFS2673881 2006 SICARD ELIOT SA CS TIGNES 37.95 40.68 1:18.63 274.42
45 104 45/U12 FFS2673361 2006 GINET NOA SA SC MENUIRES 37.67 41.05 1:18.72 275.65
46 94 46/U12 FFS2672014 2007 BLANC GUSTAVE SA SC ARECHES 38.50 40.38 1:18.88 277.84
47 17 47/U12 FFS2676539 2007 MARTIN THEO SA CS ALBIEZ 38.03 40.97 1:19.00 279.48
47 100 47/U12 FFS2675853 2007 JENKINS OLIVER SA SC MERIBEL 38.80 40.20 1:19.00 279.48
49 22 49/U12 FFS2684243 2007 HANOT EVAN SA SC AIX 38.20 40.89 1:19.09 280.71
50 117 50/U12 FFS2670933 2006 ROLLAND EVAN SA SC PRALOGNAN 38.58 40.57 1:19.15 281.53
51 101 51/U12 FFS2682415 2007 SIEGWALD MARTIN SA CS TOUSSUIRE 38.44 40.78 1:19.22 282.48
52 21 52/U12 FFS2682947 2006 BERLAND VIRGILE SA CS VALMOREL 38.77 40.48 1:19.25 282.89
53 77 53/U12 FFS2671900 2006 ROLLAND ENZO SA SC PRALOGNAN 38.63 40.71 1:19.34 284.12
54 6 54/U12 FFS2684728 2006 VIERNE NATHAN SA CO VAL THO 38.50 40.91 1:19.41 285.08
55 113 55/U12 FFS2670189 2006 CAQUINEAU VICTOR SA COURCHEVEL 39.09 40.39 1:19.48 286.03
56 16 56/U12 FFS2672516 2007 TELLIER TIM SA VAL D'ISERE 39.25 40.27 1:19.52 286.58
57 57 57/U12 FFS2671309 2006 CREY ANTOINE SA CS VALMOREL 38.83 40.88 1:19.71 289.18
58 11 58/U12 FFS2673883 2006 MONTERO DIEGO SA CS TIGNES 38.47 41.33 1:19.80 290.41
59 97 59/U12 FFS2670306 2006 BLACK HARRY SA SC MERIBEL 39.49 40.46 1:19.95 292.46
60 92 60/U12 FFS2672698 2007 GARDET TIM SA ND BELLECOMB 39.63 40.74 1:20.37 298.20
61 102 61/U12 FFS2679299 2007 VILA MATIAS SA CS TIGNES 39.24 41.47 1:20.71 302.84
62 70 62/U12 FFS2674330 2007 METGE TEO SA COURCHEVEL 38.30 42.47 1:20.77 303.66
63 2 63/U12 FFS2669423 2006 PASCAUD RAPHAEL SA SC MT CHARVI 38.86 41.99 1:20.85 304.75
63 89 63/U12 FFS2673264 2006 BORREL GUERLAIN SA SC MENUIRES 39.27 41.58 1:20.85 304.75
65 39 65/U12 FFS2682971 2006 REY ANATOLE SA SC AIX 38.54 42.37 1:20.91 305.57
66 53 66/U12 FFS2672567 2007 YSTEN LEO SA VAL D'ISERE 39.45 41.53 1:20.98 306.53
67 58 67/U12 FFS2677571 2007 PITTON GREGOIRE SA CS TOUSSUIRE 39.25 41.79 1:21.04 307.35
68 34 68/U12 FFS2671234 2006 COLLINS OSCAR SA CS TIGNES 39.66 41.46 1:21.12 308.44
69 96 69/U12 FFS2674158 2007 BARNOIN NOA SA CO VAL THO 40.32 41.49 1:21.81 317.87
70 99 70/U12 FFS2670036 2006 PUGET ANTONIN SA SC CHAMBERY 38.08 43.77 1:21.85 318.42
71 103 71/U12 FFS2681118 2007 AUBONNET EDEN SA US ROSIERE 40.66 41.27 1:21.93 319.51
72 91 72/U12 FFS2684297 2007 ANSELMET KILIAN SA SC BONNEVAL 39.75 42.23 1:21.98 320.20
73 14 73/U12 FFS2682814 2006 BENOIT THOMAS SA SC GIETTAZ 39.97 42.05 1:22.02 320.74
74 67 74/U12 FFS2677570 2006 FAURE MANO SA CS TOUSSUIRE 38.87 43.37 1:22.24 323.75
75 90 75/U12 FFS2670752 2006 SIMAC LEJEUNE VALENTIN SA TCAM-FECLAZ 40.88 41.47 1:22.35 325.25
76 37 76/U12 FFS2676744 2007 MARTIN ALEXIS SA SC MERIBEL 40.63 41.87 1:22.50 327.30
77 31 77/U12 FFS2672701 2007 MOLLIER TIBALT SA ND BELLECOMB 40.05 42.94 1:22.99 334.00
78 93 78/U12 FFS2674503 2007 CHAMOUX HUGO SA COURCHEVEL 40.22 42.86 1:23.08 335.23
79 8 79/U12 FFS2672722 2007 COSME THIMEO SA TCAM-FECLAZ 39.65 43.63 1:23.28 337.96
80 60 80/U12 FFS2684295 2007 GINET BASTIEN SA SC BONNEVAL 40.30 43.20 1:23.50 340.96
81 66 81/U12 FFS2683950 2006 QUENARD GARRY SA SC CHAMBERY 39.93 43.75 1:23.68 343.42
82 111 82/U12 FFS2671727 2007 GASNIER EWANN SA SC CHAMPAGNY 40.26 43.60 1:23.86 345.88
83 50 83/U12 FFS2678709 2006 GRIGNOUX TOM SA CS LA NORMA 39.23 44.76 1:23.99 347.66
84 107 84/U12 FFS2670301 2006 PAILLAS GASPAR SA SC MERIBEL 44.13 40.49 1:24.62 356.27
85 118 85/U12 FFS2678710 2006 MOAL HUGO SA CS LA NORMA 43.29 42.22 1:25.51 368.43
86 64 86/U12 FFS2667344 2006 CHAMIOT CLERC BAPTISTE SA CS SAISIES 41.72 44.81 1:26.53 382.37
87 33 87/U12 FFS2671994 2007 GACHET GUERLAIN SA SC ARECHES 41.18 45.51 1:26.69 384.55
88 98 88/U12 FFS2674695 2007 ANTONI JULIEN SA SC AILLONS 44.05 43.55 1:27.60 396.99
89 110 89/U12 FFS2676535 2006 DUFRENEY BENOIT SA CS ALBIEZ 36.94 51.01 1:27.95 401.77
90 40 90/U12 FFS2672697 2007 GAUDILIERE MATTIS SA ND BELLECOMB 42.61 45.77 1:28.38 407.65
91 119 91/U12 FFS2671876 2006 GERMANAZ VINCENT SA TCAM-FECLAZ 44.87 47.98 1:32.85 468.73
92 41 92/U12 FFS2670037 2006 BERTHOLDY ANATOLE SA SC CHAMBERY 37.33 1:01.35 1:38.68 548.39
93 54 93/U12 FFS2695112 2007 MOISE LOIC SA ND BELLECOMB 42.99 1:06.18 1:49.17 691.73
Abandons
4 FFS2675901 2007 GALY ALEXANDRE SA SC VALLOIRE 37.59
24 FFS2666859 2006 SICARDI ENZO SA SC AILLONS 42.74
27 FFS2682416 2006 ANSELME LEO SA CS TOUSSUIRE 40.08
29 FFS2667110 2006 LE FLOCH CHAMBET THELIAU SA SC ARECHES 42.57
36 FFS2673555 2006 MADEDDU ALBAN SA SC CHAMBERY 45.82
55 FFS2669018 2006 BOUCHEX KLEO SA CREST VOLAND 41.81
61 FFS2674835 2006 JUGLAIR ANDREA SA CS LA PLAGNE 36.40
73 FFS2687025 2006 GRANGE CHARLES SA SC AILLONS 43.81
78 FFS2683139 2007 JULIEN YANN SA CS LA NORMA 42.65
106 FFS2677542 2007 MORAND RUBEN SA SC GIETTAZ 40.32
112 FFS2672699 2007 LAMI ELIO SA SC ROCHETTE 41.83
115 FFS2670020 2006 GINOLLIN BASTIEN SA SC AILLONS 39.00
Disqualifiés
38 FFS2666284 2006 SANTON JOHAN SA COURCHEVEL 41.88
46 FFS2671626 2007 GUERILLOT EMERIC SA SC BOZEL 39.67
47 FFS2689951 2006 FOURMENTIN EMILIEN SA CS SAISIES
75 FFS2666696 2007 DUCREY CLEMENT SA CS SAISIES 39.86
Non partants
9 FFS2672700 2007 PINTO VIERA EVAN SA ND BELLECOMB
28 FFS2676530 2006 PERNET LUIS SA CS ALBIEZ
42 FFS2666670 2006 CARETTI ALEXANDRE SA ALBERTVILLE
45 FFS2679854 2006 BES VALENTIN SA SC MONTALBER
52 FFS2681454 2007 MERENDET ANTHONY SA SC MONTALBER
56 FFS2680105 2006 BROCHE DYLAN SA CS MTCHAVIN
76 FFS2670249 2006 PEIZERAT NOAH SA VAL D'ISERE
82 FFS2680081 2006 RICHARD LIVIO SA CS MTCHAVIN
85 FFS2670018 2006 MANSOZ ANTONIN SA SC AILLONS
86 FFS2675555 2006 GAIDET DORIAN SA US ROSIERE